Time;durP1;ratioP1;P1;durP2;ratioP2;P2;SDS_P1;SDS_P2;PMS_P1;PMS_P2;Temp;Humidity;BMP_temperature;BMP_pressure;BME280_temperature;BME280_humidity;BME280_pressure;Samples;Min_cycle;Max_cycle;Signal;HPM_P1;HPM_P2
2023/08/03 00:00:00;;;;;;;15.48;14.50;;;19.20;99.90;;;;;;5032593;28;20067;-82
2023/08/03 00:02:28;;;;;;;15.43;14.63;;;19.20;99.90;;;;;;5036185;28;20040;-84
2023/08/03 00:04:54;;;;;;;14.10;13.23;;;19.20;99.90;;;;;;5032306;28;20367;-81
2023/08/03 00:07:21;;;;;;;13.82;13.02;;;19.20;99.90;;;;;;5037193;28;20044;-81
2023/08/03 00:09:47;;;;;;;14.45;13.55;;;19.30;99.90;;;;;;5038915;28;20064;-83
2023/08/03 00:12:13;;;;;;;15.98;15.15;;;19.30;99.90;;;;;;5037826;28;20041;-82
2023/08/03 00:14:39;;;;;;;13.45;12.73;;;19.30;99.90;;;;;;5036036;28;20033;-81
2023/08/03 00:17:05;;;;;;;15.60;14.70;;;19.30;99.90;;;;;;5041483;28;20025;-81
2023/08/03 00:19:32;;;;;;;15.20;14.48;;;19.40;99.90;;;;;;5033013;28;20044;-81
2023/08/03 00:21:58;;;;;;;14.07;13.38;;;19.30;99.90;;;;;;5035425;28;20037;-81
2023/08/03 00:24:24;;;;;;;15.45;14.65;;;19.30;99.90;;;;;;5034042;28;20037;-79
2023/08/03 00:26:50;;;;;;;14.95;14.25;;;19.30;99.70;;;;;;5035124;28;20390;-80
2023/08/03 00:29:17;;;;;;;14.23;13.38;;;19.40;98.20;;;;;;5036116;28;20045;-82
2023/08/03 00:31:43;;;;;;;13.75;13.15;;;19.40;99.90;;;;;;5049929;28;20053;-84
2023/08/03 00:34:09;;;;;;;15.00;13.95;;;19.30;99.90;;;;;;5034424;28;20052;-83
2023/08/03 00:36:35;;;;;;;16.10;15.30;;;19.40;98.40;;;;;;5038298;28;20025;-82
2023/08/03 00:39:02;;;;;;;17.40;16.08;;;19.30;99.90;;;;;;5032464;28;20038;-82
2023/08/03 00:41:28;;;;;;;15.48;14.68;;;19.30;97.90;;;;;;5037196;28;20038;-82
2023/08/03 00:43:56;;;;;;;14.98;14.18;;;19.40;99.90;;;;;;5039574;28;20030;-83
2023/08/03 00:46:22;;;;;;;14.85;14.07;;;19.30;99.90;;;;;;5035686;28;20037;-82
2023/08/03 00:48:48;;;;;;;15.73;14.93;;;19.30;99.90;;;;;;5035155;28;20033;-81
2023/08/03 00:51:14;;;;;;;14.50;13.55;;;19.20;99.90;;;;;;5039652;28;20037;-80
2023/08/03 00:53:40;;;;;;;15.60;14.68;;;19.20;99.90;;;;;;5036316;28;20061;-82
2023/08/03 00:56:06;;;;;;;14.27;13.68;;;19.20;99.90;;;;;;5055099;28;20041;-82
2023/08/03 00:58:33;;;;;;;14.48;13.65;;;19.20;99.90;;;;;;5035328;28;20037;-83
2023/08/03 01:00:59;;;;;;;15.23;14.32;;;19.20;99.90;;;;;;5035677;28;20068;-83
2023/08/03 01:03:25;;;;;;;14.57;13.88;;;19.20;99.90;;;;;;5030557;28;20037;-84
2023/08/03 01:05:52;;;;;;;14.38;13.60;;;19.10;99.90;;;;;;5036450;28;20036;-84
2023/08/03 01:08:19;;;;;;;16.70;15.68;;;19.10;99.90;;;;;;5022907;28;20046;-84
2023/08/03 01:10:45;;;;;;;16.25;15.25;;;19.10;99.90;;;;;;5033638;28;20037;-82
2023/08/03 01:13:11;;;;;;;15.25;14.38;;;19.10;99.90;;;;;;5033605;28;20052;-82
2023/08/03 01:15:37;;;;;;;15.70;14.88;;;19.10;99.90;;;;;;5037496;28;20045;-84
2023/08/03 01:18:03;;;;;;;14.45;13.65;;;19.00;99.90;;;;;;5035677;28;20052;-83
2023/08/03 01:20:31;;;;;;;16.00;14.95;;;18.90;99.90;;;;;;5034126;28;20041;-82
2023/08/03 01:22:57;;;;;;;16.23;15.32;;;18.90;99.90;;;;;;5035141;28;20048;-84
2023/08/03 01:25:23;;;;;;;15.63;14.73;;;18.90;99.90;;;;;;5051707;28;20050;-84
2023/08/03 01:27:50;;;;;;;16.15;15.35;;;18.80;99.90;;;;;;5048387;28;20045;-83
2023/08/03 01:30:16;;;;;;;14.43;13.63;;;18.90;99.90;;;;;;5032904;28;20417;-83
2023/08/03 01:32:42;;;;;;;17.00;16.02;;;19.00;99.90;;;;;;5033073;28;20038;-86
2023/08/03 01:35:09;;;;;;;16.17;15.18;;;19.00;99.90;;;;;;5034739;28;20033;-83
2023/08/03 01:37:36;;;;;;;16.13;15.23;;;19.00;99.90;;;;;;5049079;28;20029;-80
2023/08/03 01:40:03;;;;;;;15.35;14.55;;;19.00;99.90;;;;;;5039330;28;20033;-85
2023/08/03 01:42:29;;;;;;;17.40;16.45;;;19.00;99.90;;;;;;5033411;28;20048;-80
2023/08/03 01:44:56;;;;;;;13.90;13.20;;;19.00;99.90;;;;;;5048053;28;20030;-82
2023/08/03 01:47:22;;;;;;;16.25;15.50;;;19.00;99.90;;;;;;5050405;28;20410;-81
2023/08/03 01:49:48;;;;;;;14.80;14.05;;;18.90;99.90;;;;;;5035812;28;20037;-81
2023/08/03 01:52:14;;;;;;;16.88;15.80;;;19.00;99.90;;;;;;5035715;28;20037;-81
2023/08/03 01:54:40;;;;;;;15.27;14.45;;;18.90;99.90;;;;;;5033088;28;20061;-83
2023/08/03 01:57:06;;;;;;;15.18;14.23;;;18.80;99.90;;;;;;5036921;28;20382;-82
2023/08/03 01:59:33;;;;;;;14.82;14.15;;;18.80;99.90;;;;;;5050814;28;20045;-81
2023/08/03 02:02:00;;;;;;;16.70;15.98;;;18.70;99.90;;;;;;5050652;28;20046;-81
2023/08/03 02:04:26;;;;;;;16.73;16.02;;;18.60;99.90;;;;;;5033087;28;20037;-81
2023/08/03 02:06:56;;;;;;;18.00;16.88;;;18.60;99.90;;;;;;5033271;28;20490;-84
2023/08/03 02:09:23;;;;;;;18.77;17.77;;;18.40;99.90;;;;;;5047975;28;20050;-85
2023/08/03 02:11:49;;;;;;;17.13;16.33;;;18.40;99.90;;;;;;5031992;28;20368;-83
2023/08/03 02:14:15;;;;;;;19.05;18.15;;;18.30;99.90;;;;;;5019212;28;20025;-82
2023/08/03 02:16:41;;;;;;;18.38;17.48;;;18.30;99.90;;;;;;5038785;28;20041;-81
2023/08/03 02:19:07;;;;;;;18.25;17.15;;;18.30;99.90;;;;;;5055770;28;20036;-81
2023/08/03 02:21:34;;;;;;;16.23;15.52;;;18.30;99.90;;;;;;5054411;28;20053;-83
2023/08/03 02:24:00;;;;;;;16.88;16.08;;;18.30;99.90;;;;;;5041249;28;20037;-82
2023/08/03 02:26:26;;;;;;;16.48;15.77;;;18.30;99.90;;;;;;5034261;28;20029;-82
2023/08/03 02:28:52;;;;;;;15.68;14.88;;;18.40;99.90;;;;;;5036686;28;20390;-82
2023/08/03 02:31:18;;;;;;;15.60;14.90;;;18.40;99.90;;;;;;5052489;28;20048;-81
2023/08/03 02:33:49;;;;;;;;;;;18.40;99.90;;;;;;5035726;28;20063;-82
2023/08/03 02:36:20;;;;;;;14.77;14.07;;;18.50;99.90;;;;;;5053109;28;19916;-80
2023/08/03 02:38:48;;;;;;;14.70;13.93;;;18.50;99.90;;;;;;5036174;28;20045;-77
2023/08/03 02:41:15;;;;;;;14.82;14.15;;;18.50;99.90;;;;;;5052617;28;20045;-80
2023/08/03 02:43:42;;;;;;;14.57;13.85;;;18.50;99.90;;;;;;5037273;28;20041;-79
2023/08/03 02:46:11;;;;;;;15.68;14.88;;;18.50;99.90;;;;;;5036223;28;20800;-79
2023/08/03 02:48:37;;;;;;;14.65;14.05;;;18.50;99.90;;;;;;5035500;28;20490;-80
2023/08/03 02:51:05;;;;;;;14.93;14.23;;;18.50;99.90;;;;;;5039070;28;20033;-81
2023/08/03 02:53:35;;;;;;;15.45;14.75;;;18.50;99.90;;;;;;5035453;28;20041;-81
2023/08/03 02:56:03;;;;;;;14.80;14.20;;;18.40;99.90;;;;;;5037546;28;20041;-80
2023/08/03 02:58:34;;;;;;;13.73;13.02;;;18.40;99.90;;;;;;5056736;28;20044;-82
2023/08/03 03:01:04;;;;;;;15.98;15.27;;;18.30;99.90;;;;;;5051153;28;20046;-81
2023/08/03 03:03:31;;;;;;;16.02;15.25;;;18.30;99.90;;;;;;5055392;28;20041;-81
2023/08/03 03:05:57;;;;;;;16.55;15.82;;;18.20;99.90;;;;;;5040093;28;20033;-79
2023/08/03 03:08:25;;;;;;;16.15;15.40;;;18.10;99.90;;;;;;5035847;28;20038;-81
2023/08/03 03:10:55;;;;;;;15.25;14.57;;;18.00;99.90;;;;;;5047722;28;20061;-81
2023/08/03 03:13:21;;;;;;;15.82;14.95;;;18.00;99.90;;;;;;5037534;28;20030;-80
2023/08/03 03:15:47;;;;;;;16.35;15.60;;;17.90;99.90;;;;;;5038926;28;20030;-81
2023/08/03 03:18:14;;;;;;;16.35;15.32;;;17.90;99.90;;;;;;5036492;28;20041;-82
2023/08/03 03:20:40;;;;;;;14.18;13.57;;;17.80;99.90;;;;;;5040446;28;20045;-80
2023/08/03 03:23:09;;;;;;;16.27;15.50;;;17.80;99.90;;;;;;5033355;28;20045;-80
2023/08/03 03:25:38;;;;;;;17.67;16.80;;;17.70;99.90;;;;;;5039268;28;20033;-81
2023/08/03 03:28:04;;;;;;;16.30;15.65;;;17.80;99.90;;;;;;5038754;28;20383;-81
2023/08/03 03:30:34;;;;;;;17.38;16.33;;;17.70;99.90;;;;;;5056579;28;20052;-82
2023/08/03 03:33:00;;;;;;;14.82;14.15;;;17.70;99.90;;;;;;5036442;28;20038;-84
2023/08/03 03:35:26;;;;;;;15.98;15.20;;;17.70;99.90;;;;;;5038296;28;20038;-82
2023/08/03 03:37:53;;;;;;;14.90;14.20;;;17.60;99.90;;;;;;5031948;28;20044;-83
2023/08/03 03:40:24;;;;;;;15.15;14.55;;;17.60;99.90;;;;;;5035685;28;20048;-82
2023/08/03 03:42:51;;;;;;;15.35;14.65;;;17.60;99.90;;;;;;5052007;28;20037;-82
2023/08/03 03:45:18;;;;;;;15.07;14.45;;;17.60;99.90;;;;;;5051357;28;20033;-83
2023/08/03 03:47:44;;;;;;;15.95;15.25;;;17.60;99.90;;;;;;5039023;28;20064;-82
2023/08/03 03:50:11;;;;;;;15.13;14.43;;;17.60;99.90;;;;;;5036205;28;20399;-83
2023/08/03 03:52:37;;;;;;;15.18;14.57;;;17.60;99.90;;;;;;5028820;28;20034;-81
2023/08/03 03:55:04;;;;;;;16.20;15.40;;;17.60;99.90;;;;;;5034493;28;20049;-82
2023/08/03 03:57:32;;;;;;;14.25;13.65;;;17.60;99.90;;;;;;5035705;28;20052;-80
2023/08/03 03:59:58;;;;;;;16.30;15.50;;;17.70;99.90;;;;;;5037414;28;20071;-79
2023/08/03 04:02:24;;;;;;;14.65;13.65;;;17.70;99.90;;;;;;5031141;28;20041;-83
2023/08/03 04:04:53;;;;;;;13.13;12.48;;;17.70;99.90;;;;;;5049318;28;20041;-77
2023/08/03 04:07:20;;;;;;;15.85;15.05;;;17.80;99.90;;;;;;5053161;28;20049;-76
2023/08/03 04:09:46;;;;;;;14.40;13.70;;;17.80;99.90;;;;;;5037432;28;20060;-78
2023/08/03 04:12:12;;;;;;;13.95;13.32;;;17.80;99.90;;;;;;5036395;28;20033;-79
2023/08/03 04:14:39;;;;;;;13.57;12.98;;;17.90;99.90;;;;;;5036564;28;20443;-77
2023/08/03 04:17:05;;;;;;;14.23;13.63;;;18.00;99.90;;;;;;5061386;28;20041;-78
2023/08/03 04:19:32;;;;;;;14.55;13.88;;;18.00;99.90;;;;;;5047933;28;20044;-79
2023/08/03 04:21:59;;;;;;;13.02;12.48;;;18.00;99.90;;;;;;5032463;28;20045;-79
2023/08/03 04:24:26;;;;;;;14.07;13.40;;;18.00;99.90;;;;;;5031311;28;20052;-86
2023/08/03 04:26:52;;;;;;;13.52;12.90;;;18.00;99.90;;;;;;5032499;28;20036;-87
2023/08/03 04:29:22;;;;;;;14.27;13.63;;;18.00;99.90;;;;;;5051398;28;20048;-86
2023/08/03 04:31:49;;;;;;;14.95;14.25;;;18.00;99.90;;;;;;5052119;28;20048;-86
2023/08/03 04:34:16;;;;;;;14.88;14.27;;;18.10;99.90;;;;;;5054805;28;20060;-87
2023/08/03 04:36:46;;;;;;;14.02;13.40;;;18.10;99.90;;;;;;5053661;28;20041;-84
2023/08/03 04:39:12;;;;;;;14.07;13.32;;;18.00;99.90;;;;;;5039926;28;20060;-83
2023/08/03 04:41:38;;;;;;;14.38;13.70;;;18.00;99.90;;;;;;5054088;28;20049;-83
2023/08/03 04:44:05;;;;;;;14.90;14.18;;;18.00;99.90;;;;;;5050044;28;20399;-84
2023/08/03 04:46:33;;;;;;;14.40;13.77;;;18.00;99.90;;;;;;5048804;28;20471;-82
2023/08/03 04:49:00;;;;;;;15.40;14.70;;;18.00;99.90;;;;;;5036219;28;20510;-85
2023/08/03 04:51:28;;;;;;;14.85;14.18;;;18.00;99.90;;;;;;5034669;28;20502;-84
2023/08/03 04:53:55;;;;;;;14.75;14.15;;;18.00;99.90;;;;;;5048769;28;20120;-86
2023/08/03 04:56:24;;;;;;;14.15;13.45;;;18.00;99.90;;;;;;5040557;28;20474;-88
2023/08/03 04:58:51;;;;;;;15.00;14.20;;;18.00;99.90;;;;;;5034205;28;20041;-85
2023/08/03 05:01:17;;;;;;;15.15;14.45;;;18.00;99.90;;;;;;5031414;28;20049;-87
2023/08/03 05:03:43;;;;;;;15.05;14.35;;;17.80;99.90;;;;;;5028863;28;20121;-82
2023/08/03 05:06:09;;;;;;;16.25;15.55;;;17.80;99.90;;;;;;5038910;28;20119;-87
2023/08/03 05:08:35;;;;;;;15.90;14.93;;;17.70;99.90;;;;;;5034080;28;20052;-85
2023/08/03 05:11:02;;;;;;;14.38;13.77;;;17.60;99.90;;;;;;5032088;28;20402;-85
2023/08/03 05:13:33;;;;;;;15.43;14.63;;;17.60;99.90;;;;;;5031275;28;20044;-85
2023/08/03 05:15:59;;;;;;;15.32;14.52;;;17.60;99.90;;;;;;5019584;28;20558;-88
2023/08/03 05:18:25;;;;;;;15.35;14.55;;;17.50;99.90;;;;;;5050568;28;20049;-85
2023/08/03 05:20:51;;;;;;;15.38;14.68;;;17.50;99.90;;;;;;5037547;28;20033;-87
2023/08/03 05:23:19;;;;;;;16.23;15.43;;;17.50;99.90;;;;;;5031951;28;20052;-82
2023/08/03 05:25:45;;;;;;;13.45;12.90;;;17.40;99.90;;;;;;5035922;28;20033;-87
2023/08/03 05:28:11;;;;;;;13.75;13.15;;;17.40;99.90;;;;;;5031839;28;20029;-86
2023/08/03 05:30:38;;;;;;;13.68;13.02;;;17.30;99.90;;;;;;5039615;28;20127;-84
2023/08/03 05:33:04;;;;;;;15.25;14.55;;;17.30;99.90;;;;;;5040955;28;20219;-85
2023/08/03 05:35:30;;;;;;;13.90;13.30;;;17.30;99.90;;;;;;5052324;28;20037;-85
2023/08/03 05:37:56;;;;;;;14.10;13.30;;;17.20;99.90;;;;;;5059279;28;20038;-87
2023/08/03 05:40:22;;;;;;;13.63;13.02;;;17.20;99.90;;;;;;5042136;28;20033;-85
2023/08/03 05:42:48;;;;;;;13.40;12.70;;;17.20;99.90;;;;;;5048977;28;20030;-87
2023/08/03 05:45:36;;;;;;;14.52;13.82;;;17.20;99.90;;;;;;5028256;28;20045;-87
2023/08/03 05:48:04;;;;;;;14.48;13.80;;;17.30;99.90;;;;;;5045973;28;20033;-85
2023/08/03 05:50:30;;;;;;;13.77;13.18;;;17.30;99.90;;;;;;5031708;28;20466;-86
2023/08/03 05:52:56;;;;;;;14.98;14.18;;;17.40;99.90;;;;;;5037110;28;20374;-87
2023/08/03 05:55:22;;;;;;;15.25;14.45;;;17.40;99.90;;;;;;5035796;28;20029;-82
2023/08/03 05:57:49;;;;;;;15.27;14.57;;;17.40;99.90;;;;;;5033973;28;20032;-84
2023/08/03 06:00:21;;;;;;;15.95;14.98;;;17.50;99.90;;;;;;5031413;28;20050;-86
2023/08/03 06:02:47;;;;;;;15.20;14.50;;;17.70;99.90;;;;;;5046258;28;20463;-83
2023/08/03 06:05:43;;;;;;;14.85;14.20;;;17.80;99.90;;;;;;5041409;28;20029;-85
2023/08/03 06:08:17;;;;;;;14.38;13.77;;;17.90;99.90;;;;;;5033169;28;20041;-82
2023/08/03 06:10:45;;;;;;;15.63;14.65;;;17.90;99.90;;;;;;5032784;28;20483;-83
2023/08/03 06:13:14;;;;;;;14.90;14.15;;;17.80;99.90;;;;;;5031930;28;20064;-84
2023/08/03 06:15:42;;;;;;;14.73;14.02;;;17.80;99.90;;;;;;5022629;28;20041;-84
2023/08/03 06:18:12;;;;;;;13.40;12.90;;;17.70;99.90;;;;;;5037857;28;20414;-83
2023/08/03 06:20:45;;;;;;;16.40;15.60;;;17.70;99.90;;;;;;5032307;28;20336;-83
2023/08/03 06:23:26;;;;;;;15.77;15.05;;;17.70;99.90;;;;;;5035615;28;20068;-81
2023/08/03 06:25:55;;;;;;;15.32;14.48;;;17.70;99.90;;;;;;5041731;28;20482;-82
2023/08/03 06:28:23;;;;;;;15.60;14.90;;;17.90;99.90;;;;;;5032850;28;20467;-83
2023/08/03 06:30:50;;;;;;;14.65;13.80;;;18.00;99.90;;;;;;5033561;28;20033;-80
2023/08/03 06:33:21;;;;;;;14.20;13.60;;;18.00;99.90;;;;;;5038658;28;20498;-83
2023/08/03 06:35:48;;;;;;;;;;;18.10;99.90;;;;;;5038610;28;20029;-85
2023/08/03 06:38:21;;;;;;;15.35;14.57;;;18.20;99.90;;;;;;5035194;28;20320;-83
2023/08/03 06:40:48;;;;;;;15.23;14.52;;;18.10;99.90;;;;;;5034994;28;20047;-83
2023/08/03 06:43:15;;;;;;;16.17;15.40;;;18.10;99.90;;;;;;5031157;28;20411;-84
2023/08/03 06:45:42;;;;;;;14.00;13.40;;;18.10;99.90;;;;;;5032641;28;20053;-84
2023/08/03 06:48:09;;;;;;;15.38;14.68;;;18.20;99.90;;;;;;5036697;28;20044;-82
2023/08/03 06:50:36;;;;;;;12.63;12.13;;;18.30;99.90;;;;;;5034952;28;20041;-81
2023/08/03 06:53:02;;;;;;;14.45;13.75;;;18.20;99.90;;;;;;5037020;28;20395;-82
2023/08/03 06:55:30;;;;;;;15.68;14.93;;;18.20;99.90;;;;;;5038695;28;20045;-82
2023/08/03 06:57:56;;;;;;;14.93;14.32;;;18.10;99.90;;;;;;5039106;28;20038;-77
2023/08/03 07:00:23;;;;;;;15.05;14.38;;;18.00;99.90;;;;;;5037471;28;20057;-81
2023/08/03 07:02:50;;;;;;;14.77;13.98;;;18.00;99.90;;;;;;5036908;28;20033;-82
2023/08/03 07:05:16;;;;;;;13.90;13.20;;;18.10;99.90;;;;;;5037178;28;20034;-80
2023/08/03 07:07:43;;;;;;;14.15;13.30;;;18.20;99.90;;;;;;5047919;28;20481;-81
2023/08/03 07:10:09;;;;;;;13.85;13.20;;;18.30;99.90;;;;;;5051464;28;20042;-82
2023/08/03 07:12:36;;;;;;;14.52;13.73;;;18.20;99.90;;;;;;5034093;28;20030;-84
2023/08/03 07:15:03;;;;;;;13.02;12.43;;;18.20;99.90;;;;;;5039222;28;20037;-82
2023/08/03 07:17:29;;;;;;;13.13;12.43;;;18.20;99.90;;;;;;5036745;28;20059;-83
2023/08/03 07:19:55;;;;;;;13.65;13.00;;;18.30;99.90;;;;;;5033222;28;20612;-83
2023/08/03 07:22:22;;;;;;;15.13;14.32;;;18.20;99.90;;;;;;5030023;28;20052;-84
2023/08/03 07:24:48;;;;;;;13.77;13.13;;;18.10;99.90;;;;;;5043835;28;20403;-82
2023/08/03 07:27:15;;;;;;;13.88;13.18;;;18.30;99.90;;;;;;5045419;28;20033;-84
2023/08/03 07:29:42;;;;;;;15.13;14.30;;;18.30;99.90;;;;;;5037481;28;20025;-85
2023/08/03 07:32:09;;;;;;;13.73;13.10;;;18.30;99.90;;;;;;5038119;28;20065;-84
2023/08/03 07:34:35;;;;;;;13.65;13.05;;;18.30;99.90;;;;;;5036486;28;20383;-85
2023/08/03 07:37:02;;;;;;;13.60;12.90;;;18.20;99.90;;;;;;5036552;28;20447;-84
2023/08/03 07:39:28;;;;;;;13.73;13.02;;;18.30;99.90;;;;;;5035853;28;20045;-86
2023/08/03 07:41:54;;;;;;;14.30;13.63;;;18.30;99.90;;;;;;5051324;28;20033;-86
2023/08/03 07:44:21;;;;;;;14.35;13.70;;;18.40;99.90;;;;;;5040253;28;20033;-83
2023/08/03 07:46:47;;;;;;;14.80;14.00;;;18.20;99.90;;;;;;5039698;28;20029;-83
2023/08/03 07:49:13;;;;;;;15.70;14.73;;;18.10;99.90;;;;;;5055640;28;20041;-82
2023/08/03 07:51:40;;;;;;;14.27;13.68;;;18.10;99.90;;;;;;5041155;28;20041;-86
2023/08/03 07:54:06;;;;;;;13.60;12.85;;;17.90;99.90;;;;;;5040580;28;20042;-86
2023/08/03 07:56:32;;;;;;;15.05;14.27;;;17.90;99.90;;;;;;5047317;28;20463;-83
2023/08/03 07:59:00;;;;;;;14.32;13.73;;;17.90;99.90;;;;;;5038487;28;20056;-86
2023/08/03 08:01:26;;;;;;;14.73;14.02;;;18.00;99.90;;;;;;5041268;28;20038;-84
2023/08/03 08:03:52;;;;;;;14.18;13.57;;;18.20;99.90;;;;;;5037525;28;20025;-82
2023/08/03 08:06:20;;;;;;;12.98;12.38;;;18.00;99.90;;;;;;5034799;28;20041;-85
2023/08/03 08:08:47;;;;;;;13.25;12.60;;;18.00;99.90;;;;;;5037031;28;20033;-86
2023/08/03 08:11:17;;;;;;;15.05;14.25;;;18.10;99.90;;;;;;5035067;28;20037;-84
2023/08/03 08:13:43;;;;;;;14.75;14.05;;;18.00;99.90;;;;;;5042089;28;20045;-84
2023/08/03 08:16:14;;;;;;;14.40;13.55;;;17.90;99.90;;;;;;5030859;28;20041;-88
2023/08/03 08:18:41;;;;;;;14.90;14.30;;;18.00;99.90;;;;;;5029058;28;20041;-87
2023/08/03 08:21:11;;;;;;;13.10;12.43;;;18.00;99.90;;;;;;5034825;28;20044;-84
2023/08/03 08:23:38;;;;;;;;;;;17.90;99.90;;;;;;5031905;28;20041;-82
2023/08/03 08:26:15;;;;;;;12.88;12.27;;;17.80;99.90;;;;;;5028841;28;19912;-86
2023/08/03 08:28:42;;;;;;;13.27;12.73;;;17.80;99.90;;;;;;5032363;28;20037;-85
2023/08/03 08:31:09;;;;;;;14.88;14.25;;;17.80;99.90;;;;;;5034862;28;20057;-85
2023/08/03 08:33:36;;;;;;;14.70;14.00;;;17.70;99.90;;;;;;5029300;28;20044;-85
2023/08/03 08:36:03;;;;;;;14.32;13.60;;;17.70;99.90;;;;;;5045786;28;20014;-85
2023/08/03 08:38:30;;;;;;;13.70;12.90;;;17.80;99.90;;;;;;5058862;28;20033;-87
2023/08/03 08:41:00;;;;;;;13.82;13.13;;;17.70;99.90;;;;;;5062772;28;20041;-84
2023/08/03 08:43:27;;;;;;;13.85;13.20;;;17.60;99.90;;;;;;5050892;28;20040;-85
2023/08/03 08:45:54;;;;;;;13.68;13.07;;;17.60;99.90;;;;;;5036241;28;20033;-84
2023/08/03 08:48:20;;;;;;;16.48;15.63;;;17.70;1.00;;;;;;5040539;28;20029;-86
2023/08/03 08:50:49;;;;;;;14.00;13.20;;;17.70;99.90;;;;;;5042338;28;20041;-84
2023/08/03 08:53:15;;;;;;;12.68;11.95;;;17.70;99.90;;;;;;5029809;28;20466;-86
2023/08/03 08:55:41;;;;;;;13.77;12.95;;;17.70;1.00;;;;;;5035668;28;20043;-85
2023/08/03 08:58:08;;;;;;;15.50;14.85;;;17.80;1.00;;;;;;5037188;28;20034;-86
2023/08/03 09:00:45;;;;;;;13.23;12.63;;;17.90;99.90;;;;;;5035387;28;20050;-87
2023/08/03 09:03:13;;;;;;;13.63;13.02;;;18.00;99.90;;;;;;5029736;28;20037;-86
2023/08/03 09:05:39;;;;;;;13.50;12.95;;;17.90;99.90;;;;;;5038022;28;20034;-82
2023/08/03 09:08:07;;;;;;;13.57;12.98;;;18.00;99.90;;;;;;5040225;28;20041;-82
2023/08/03 09:10:54;;;;;;;14.82;14.15;;;18.10;99.90;;;;;;5037953;28;20041;-88
2023/08/03 09:13:35;;;;;;;13.35;12.85;;;18.40;99.90;;;;;;5041646;28;20037;-83
2023/08/03 09:16:01;;;;;;;;;;;18.50;99.90;;;;;;5045010;28;20560;-84
2023/08/03 09:18:30;;;;;;;14.05;13.45;;;18.60;99.90;;;;;;5036349;28;19916;-88
2023/08/03 09:21:17;;;;;;;14.43;13.82;;;18.80;99.90;;;;;;5035673;28;20033;-82
2023/08/03 09:23:43;;;;;;;13.75;12.95;;;18.70;99.90;;;;;;5030920;28;20045;-87
2023/08/03 09:26:10;;;;;;;14.75;14.05;;;18.70;99.90;;;;;;5055052;28;20055;-85
2023/08/03 09:28:39;;;;;;;14.77;14.07;;;18.70;99.90;;;;;;5037939;28;20037;-87
2023/08/03 09:31:06;;;;;;;14.88;14.20;;;18.90;99.90;;;;;;5037737;28;20034;-88
2023/08/03 09:33:33;;;;;;;12.45;11.95;;;18.80;99.90;;;;;;5038772;28;20042;-90
2023/08/03 09:36:04;;;;;;;13.38;12.77;;;18.70;99.90;;;;;;5052114;28;20044;-88
2023/08/03 09:38:31;;;;;;;13.02;12.48;;;18.60;99.90;;;;;;5039729;28;20455;-87
2023/08/03 09:40:58;;;;;;;15.05;14.25;;;18.60;99.90;;;;;;5040480;28;20038;-86
2023/08/03 09:43:26;;;;;;;13.98;13.35;;;18.60;99.90;;;;;;5043194;28;20034;-83
2023/08/03 09:45:53;;;;;;;13.02;12.43;;;18.70;99.90;;;;;;5039730;28;20060;-84
2023/08/03 09:48:20;;;;;;;14.18;13.48;;;18.80;99.90;;;;;;5042526;28;20029;-85
2023/08/03 09:50:54;;;;;;;15.05;14.25;;;18.90;99.90;;;;;;5040361;28;20029;-86
2023/08/03 09:53:25;;;;;;;14.18;13.57;;;19.10;99.90;;;;;;5039236;28;20056;-86
2023/08/03 09:56:03;;;;;;;15.23;14.48;;;19.20;99.90;;;;;;5039185;28;20030;-84
2023/08/03 09:58:35;;;;;;;14.90;14.13;;;19.30;99.90;;;;;;5035721;28;20040;-83
2023/08/03 10:01:04;;;;;;;14.60;13.80;;;19.20;99.90;;;;;;5040869;28;20053;-87
2023/08/03 10:03:32;;;;;;;14.80;14.10;;;18.90;99.90;;;;;;5056856;28;20045;-86
2023/08/03 10:06:13;;;;;;;14.65;13.95;;;19.00;99.90;;;;;;5039888;28;20038;-85
2023/08/03 10:08:56;;;;;;;14.43;13.82;;;19.30;99.90;;;;;;5053308;28;20033;-86
2023/08/03 10:11:30;;;;;;;14.25;13.60;;;19.60;99.90;;;;;;5036735;28;20048;-85
2023/08/03 10:14:03;;;;;;;13.85;13.25;;;19.80;99.90;;;;;;5038469;28;20025;-86
2023/08/03 10:16:33;;;;;;;13.95;13.35;;;19.80;99.90;;;;;;5044102;28;20048;-85
2023/08/03 10:19:02;;;;;;;14.70;14.02;;;20.00;99.90;;;;;;5043458;28;20033;-83
2023/08/03 10:21:31;;;;;;;15.30;14.70;;;19.80;99.90;;;;;;5039923;28;20059;-85
2023/08/03 10:24:18;;;;;;;14.88;14.27;;;19.40;99.90;;;;;;5041991;28;20033;-84
2023/08/03 10:26:51;;;;;;;14.85;14.20;;;19.10;99.90;;;;;;5037426;28;20037;-87
2023/08/03 10:29:56;;;;;;;13.45;12.85;;;19.20;99.90;;;;;;5038019;28;20493;-83
2023/08/03 10:32:27;;;;;;;13.27;12.68;;;19.30;99.90;;;;;;5039670;28;20410;-85
2023/08/03 10:34:59;;;;;;;14.75;13.95;;;19.60;99.90;;;;;;5049766;28;20041;-87
2023/08/03 10:37:25;;;;;;;12.70;12.20;;;19.50;99.90;;;;;;5037001;28;20432;-85
2023/08/03 10:39:59;;;;;;;13.07;12.48;;;19.30;99.90;;;;;;5036327;28;20041;-83
2023/08/03 10:42:32;;;;;;;14.57;13.98;;;19.30;99.90;;;;;;5034210;28;20037;-83
2023/08/03 10:45:22;;;;;;;13.02;12.50;;;19.40;99.90;;;;;;5040171;28;20032;-87
2023/08/03 10:47:49;;;;;;;15.25;14.35;;;19.70;99.90;;;;;;5035867;28;20482;-83
2023/08/03 10:50:15;;;;;;;14.32;13.65;;;19.70;99.90;;;;;;5037037;28;20029;-87
2023/08/03 10:52:41;;;;;;;14.73;14.13;;;19.70;99.90;;;;;;5034817;28;20041;-82
2023/08/03 10:55:26;;;;;;;15.10;14.50;;;19.90;99.90;;;;;;5037778;28;20479;-88
2023/08/03 10:57:54;;;;;;;13.73;13.23;;;20.00;99.90;;;;;;5037674;28;20394;-86
2023/08/03 11:00:21;;;;;;;14.30;13.73;;;20.20;99.90;;;;;;5037183;28;20041;-85
2023/08/03 11:02:49;;;;;;;15.10;14.45;;;20.10;99.90;;;;;;5034737;28;20164;-84
2023/08/03 11:05:16;;;;;;;13.65;13.15;;;20.00;99.90;;;;;;5036605;28;20033;-85
2023/08/03 11:07:44;;;;;;;14.75;14.18;;;20.10;99.90;;;;;;5037799;28;20036;-85
2023/08/03 11:10:12;;;;;;;15.90;15.10;;;20.30;99.90;;;;;;5036436;28;20084;-83
2023/08/03 11:12:40;;;;;;;16.33;15.63;;;20.80;99.90;;;;;;5034154;28;20045;-82
2023/08/03 11:15:07;;;;;;;16.17;15.48;;;21.00;99.90;;;;;;5051788;28;20038;-85
2023/08/03 11:17:35;;;;;;;17.23;16.50;;;21.20;99.90;;;;;;5038695;28;20029;-84
2023/08/03 11:20:03;;;;;;;20.27;19.38;;;21.40;99.90;;;;;;5037343;28;20442;-84
2023/08/03 11:22:31;;;;;;;17.02;16.42;;;22.00;90.60;;;;;;5036068;28;20036;-83
2023/08/03 11:25:02;;;;;;;18.27;17.58;;;21.80;72.20;;;;;;5038575;28;20050;-83
2023/08/03 11:27:30;;;;;;;16.42;15.82;;;21.70;72.00;;;;;;5039986;28;20040;-85
2023/08/03 11:29:56;;;;;;;14.65;13.95;;;21.70;84.40;;;;;;5053722;28;20014;-84
2023/08/03 11:32:25;;;;;;;18.50;17.80;;;21.80;65.40;;;;;;5037622;28;20041;-82
2023/08/03 11:35:17;;;;;;;15.73;15.13;;;21.80;74.80;;;;;;5039792;28;20143;-84
2023/08/03 11:37:43;;;;;;;15.73;15.13;;;21.80;52.40;;;;;;5040856;28;20060;-82
2023/08/03 11:40:11;;;;;;;16.98;16.27;;;21.40;82.30;;;;;;5037449;28;20038;-84
2023/08/03 11:42:39;;;;;;;17.75;17.02;;;21.10;98.30;;;;;;5032375;28;20439;-86
2023/08/03 11:45:06;;;;;;;16.25;15.65;;;21.10;99.90;;;;;;5038023;28;20363;-84
2023/08/03 11:47:46;;;;;;;15.68;15.07;;;21.40;99.90;;;;;;5036677;28;20033;-82
2023/08/03 11:50:13;;;;;;;15.05;14.55;;;21.20;85.60;;;;;;5022106;28;20471;-87
2023/08/03 11:52:39;;;;;;;16.38;15.68;;;21.10;99.90;;;;;;5042855;28;20056;-82
2023/08/03 11:55:06;;;;;;;16.23;15.52;;;21.20;99.00;;;;;;5050753;28;20034;-85
2023/08/03 12:00:18;;;;;;;15.85;15.15;;;21.00;99.90;;;;;;5036470;28;20057;-85
2023/08/03 12:02:46;;;;;;;14.88;14.27;;;20.90;99.90;;;;;;5034746;28;20048;-85
2023/08/03 12:05:12;;;;;;;14.57;14.07;;;21.00;99.90;;;;;;5060228;28;20024;-83
2023/08/03 12:07:40;;;;;;;15.52;14.93;;;21.20;90.10;;;;;;5048221;28;20367;-83
2023/08/03 12:10:13;;;;;;;16.15;15.55;;;21.40;89.90;;;;;;5040360;28;20033;-83
2023/08/03 12:12:40;;;;;;;14.40;13.90;;;21.40;70.20;;;;;;5052945;28;20048;-85
2023/08/03 12:15:07;;;;;;;14.38;13.80;;;21.40;92.70;;;;;;5037966;28;20036;-84
2023/08/03 12:17:33;;;;;;;16.73;16.13;;;21.50;91.70;;;;;;5038717;28;20362;-83
2023/08/03 12:19:59;;;;;;;14.95;14.35;;;22.00;40.70;;;;;;5033961;28;20044;-83
2023/08/03 12:22:25;;;;;;;15.90;15.30;;;22.30;16.00;;;;;;5035059;28;20041;-86
2023/08/03 12:24:52;;;;;;;16.95;16.35;;;22.00;10.30;;;;;;5036254;28;20025;-82
2023/08/03 12:27:18;;;;;;;16.48;15.88;;;21.80;27.10;;;;;;5036743;28;20034;-82
2023/08/03 12:29:44;;;;;;;17.80;17.02;;;21.70;49.40;;;;;;5033829;28;20482;-85
2023/08/03 12:32:11;;;;;;;15.73;15.13;;;21.50;61.50;;;;;;5034720;28;20045;-86
2023/08/03 12:34:37;;;;;;;15.30;14.70;;;21.80;77.20;;;;;;5056516;28;20037;-84